sensor_id;sensor_type;location;lat;lon;timestamp;P1;durP1;ratioP1;P2;durP2;ratioP2
20040;SDS011;10181;48.072;9.884;2023-04-16T00:01:50;15.63;;;14.93;;
20040;SDS011;10181;48.072;9.884;2023-04-16T00:04:16;14.83;;;14.30;;
20040;SDS011;10181;48.072;9.884;2023-04-16T00:06:41;11.23;;;10.80;;
20040;SDS011;10181;48.072;9.884;2023-04-16T00:09:07;9.43;;;9.03;;
20040;SDS011;10181;48.072;9.884;2023-04-16T00:11:33;8.10;;;7.80;;
20040;SDS011;10181;48.072;9.884;2023-04-16T00:13:58;6.77;;;6.47;;
20040;SDS011;10181;48.072;9.884;2023-04-16T00:16:24;5.80;;;5.40;;
20040;SDS011;10181;48.072;9.884;2023-04-16T00:18:50;5.47;;;5.27;;
20040;SDS011;10181;48.072;9.884;2023-04-16T00:21:15;6.40;;;6.10;;
20040;SDS011;10181;48.072;9.884;2023-04-16T00:23:41;6.03;;;5.80;;
20040;SDS011;10181;48.072;9.884;2023-04-16T00:26:07;6.07;;;5.87;;
20040;SDS011;10181;48.072;9.884;2023-04-16T00:28:33;7.90;;;7.50;;
20040;SDS011;10181;48.072;9.884;2023-04-16T00:30:59;8.00;;;7.70;;
20040;SDS011;10181;48.072;9.884;2023-04-16T00:33:25;6.40;;;6.10;;
20040;SDS011;10181;48.072;9.884;2023-04-16T00:35:51;7.23;;;6.93;;
20040;SDS011;10181;48.072;9.884;2023-04-16T00:38:16;6.83;;;6.43;;
20040;SDS011;10181;48.072;9.884;2023-04-16T00:40:42;6.87;;;6.50;;
20040;SDS011;10181;48.072;9.884;2023-04-16T00:43:08;5.70;;;5.50;;
20040;SDS011;10181;48.072;9.884;2023-04-16T00:45:33;5.50;;;5.30;;
20040;SDS011;10181;48.072;9.884;2023-04-16T00:48:00;5.43;;;5.17;;
20040;SDS011;10181;48.072;9.884;2023-04-16T00:50:26;5.40;;;5.20;;
20040;SDS011;10181;48.072;9.884;2023-04-16T00:52:52;5.23;;;5.03;;
20040;SDS011;10181;48.072;9.884;2023-04-16T00:55:17;4.67;;;4.47;;
20040;SDS011;10181;48.072;9.884;2023-04-16T00:57:45;10.67;;;10.27;;
20040;SDS011;10181;48.072;9.884;2023-04-16T01:00:11;16.43;;;15.80;;
20040;SDS011;10181;48.072;9.884;2023-04-16T01:02:37;19.77;;;18.77;;
20040;SDS011;10181;48.072;9.884;2023-04-16T01:05:03;19.97;;;19.27;;
20040;SDS011;10181;48.072;9.884;2023-04-16T01:07:29;18.73;;;18.03;;
20040;SDS011;10181;48.072;9.884;2023-04-16T01:09:55;19.87;;;19.17;;
20040;SDS011;10181;48.072;9.884;2023-04-16T01:12:21;20.03;;;19.23;;
20040;SDS011;10181;48.072;9.884;2023-04-16T01:14:47;19.10;;;18.30;;
20040;SDS011;10181;48.072;9.884;2023-04-16T01:17:13;17.50;;;16.87;;
20040;SDS011;10181;48.072;9.884;2023-04-16T01:19:39;12.47;;;12.07;;
20040;SDS011;10181;48.072;9.884;2023-04-16T01:22:04;9.33;;;9.03;;
20040;SDS011;10181;48.072;9.884;2023-04-16T01:24:30;6.57;;;6.37;;
20040;SDS011;10181;48.072;9.884;2023-04-16T01:26:59;5.67;;;5.37;;
20040;SDS011;10181;48.072;9.884;2023-04-16T01:29:25;5.17;;;4.97;;
20040;SDS011;10181;48.072;9.884;2023-04-16T01:31:51;5.10;;;4.90;;
20040;SDS011;10181;48.072;9.884;2023-04-16T01:34:17;5.23;;;5.03;;
20040;SDS011;10181;48.072;9.884;2023-04-16T01:36:42;5.00;;;4.80;;
20040;SDS011;10181;48.072;9.884;2023-04-16T01:39:08;5.00;;;4.80;;
20040;SDS011;10181;48.072;9.884;2023-04-16T01:41:39;4.67;;;4.47;;
20040;SDS011;10181;48.072;9.884;2023-04-16T01:44:05;4.83;;;4.63;;
20040;SDS011;10181;48.072;9.884;2023-04-16T01:46:31;4.30;;;4.10;;
20040;SDS011;10181;48.072;9.884;2023-04-16T01:48:59;4.67;;;4.47;;
20040;SDS011;10181;48.072;9.884;2023-04-16T01:51:28;4.80;;;4.60;;
20040;SDS011;10181;48.072;9.884;2023-04-16T01:53:54;4.90;;;4.80;;
20040;SDS011;10181;48.072;9.884;2023-04-16T01:56:20;5.13;;;4.93;;
20040;SDS011;10181;48.072;9.884;2023-04-16T01:58:45;5.10;;;4.90;;
20040;SDS011;10181;48.072;9.884;2023-04-16T02:01:11;5.53;;;5.33;;
20040;SDS011;10181;48.072;9.884;2023-04-16T02:03:37;5.40;;;5.20;;
20040;SDS011;10181;48.072;9.884;2023-04-16T02:06:04;4.80;;;4.60;;
20040;SDS011;10181;48.072;9.884;2023-04-16T02:08:29;4.93;;;4.73;;
20040;SDS011;10181;48.072;9.884;2023-04-16T02:10:58;4.17;;;3.97;;
20040;SDS011;10181;48.072;9.884;2023-04-16T02:13:24;4.67;;;4.47;;
20040;SDS011;10181;48.072;9.884;2023-04-16T02:15:50;5.50;;;5.30;;
20040;SDS011;10181;48.072;9.884;2023-04-16T02:18:16;3.93;;;3.73;;
20040;SDS011;10181;48.072;9.884;2023-04-16T02:20:43;4.13;;;3.93;;
20040;SDS011;10181;48.072;9.884;2023-04-16T02:23:09;4.90;;;4.60;;
20040;SDS011;10181;48.072;9.884;2023-04-16T02:25:42;4.50;;;4.30;;
20040;SDS011;10181;48.072;9.884;2023-04-16T02:28:11;8.90;;;8.60;;
20040;SDS011;10181;48.072;9.884;2023-04-16T02:30:38;13.10;;;12.60;;
20040;SDS011;10181;48.072;9.884;2023-04-16T02:33:05;14.57;;;14.03;;
20040;SDS011;10181;48.072;9.884;2023-04-16T02:35:34;18.30;;;17.50;;
20040;SDS011;10181;48.072;9.884;2023-04-16T02:38:00;20.93;;;20.17;;
20040;SDS011;10181;48.072;9.884;2023-04-16T02:40:27;20.07;;;19.37;;
20040;SDS011;10181;48.072;9.884;2023-04-16T02:42:53;20.40;;;19.63;;
20040;SDS011;10181;48.072;9.884;2023-04-16T02:45:19;19.63;;;18.87;;
20040;SDS011;10181;48.072;9.884;2023-04-16T02:47:45;18.27;;;17.47;;
20040;SDS011;10181;48.072;9.884;2023-04-16T02:50:11;15.90;;;15.23;;
20040;SDS011;10181;48.072;9.884;2023-04-16T02:52:37;13.57;;;13.07;;
20040;SDS011;10181;48.072;9.884;2023-04-16T02:55:02;12.67;;;12.27;;
20040;SDS011;10181;48.072;9.884;2023-04-16T02:57:28;16.00;;;15.30;;
20040;SDS011;10181;48.072;9.884;2023-04-16T02:59:54;17.17;;;16.47;;
20040;SDS011;10181;48.072;9.884;2023-04-16T03:02:20;11.80;;;11.30;;
20040;SDS011;10181;48.072;9.884;2023-04-16T03:04:45;11.47;;;11.03;;
20040;SDS011;10181;48.072;9.884;2023-04-16T03:07:11;13.83;;;13.30;;
20040;SDS011;10181;48.072;9.884;2023-04-16T03:09:37;15.20;;;14.70;;
20040;SDS011;10181;48.072;9.884;2023-04-16T03:12:03;19.13;;;18.43;;
20040;SDS011;10181;48.072;9.884;2023-04-16T03:14:29;18.47;;;17.87;;
20040;SDS011;10181;48.072;9.884;2023-04-16T03:16:55;18.70;;;18.00;;
20040;SDS011;10181;48.072;9.884;2023-04-16T03:19:21;19.87;;;19.17;;
20040;SDS011;10181;48.072;9.884;2023-04-16T03:21:47;17.27;;;16.57;;
20040;SDS011;10181;48.072;9.884;2023-04-16T03:24:12;14.60;;;13.83;;
20040;SDS011;10181;48.072;9.884;2023-04-16T03:26:39;14.03;;;13.53;;
20040;SDS011;10181;48.072;9.884;2023-04-16T03:29:04;12.60;;;12.10;;
20040;SDS011;10181;48.072;9.884;2023-04-16T03:31:30;14.70;;;14.13;;
20040;SDS011;10181;48.072;9.884;2023-04-16T03:33:56;14.63;;;14.13;;
20040;SDS011;10181;48.072;9.884;2023-04-16T03:36:21;17.33;;;16.63;;
20040;SDS011;10181;48.072;9.884;2023-04-16T03:38:47;15.33;;;14.73;;
20040;SDS011;10181;48.072;9.884;2023-04-16T03:41:13;17.50;;;16.80;;
20040;SDS011;10181;48.072;9.884;2023-04-16T03:43:39;17.43;;;16.77;;
20040;SDS011;10181;48.072;9.884;2023-04-16T03:46:05;15.20;;;14.70;;
20040;SDS011;10181;48.072;9.884;2023-04-16T03:48:30;17.63;;;17.03;;
20040;SDS011;10181;48.072;9.884;2023-04-16T03:50:56;18.40;;;17.73;;
20040;SDS011;10181;48.072;9.884;2023-04-16T03:53:21;19.77;;;18.90;;
20040;SDS011;10181;48.072;9.884;2023-04-16T03:55:50;17.00;;;16.30;;
20040;SDS011;10181;48.072;9.884;2023-04-16T03:58:17;15.40;;;14.80;;
20040;SDS011;10181;48.072;9.884;2023-04-16T04:00:43;16.20;;;15.50;;
20040;SDS011;10181;48.072;9.884;2023-04-16T04:03:09;16.20;;;15.60;;
20040;SDS011;10181;48.072;9.884;2023-04-16T04:05:39;15.53;;;14.93;;
20040;SDS011;10181;48.072;9.884;2023-04-16T04:08:05;17.67;;;16.97;;
20040;SDS011;10181;48.072;9.884;2023-04-16T04:10:31;18.23;;;17.43;;
20040;SDS011;10181;48.072;9.884;2023-04-16T04:12:58;18.17;;;17.47;;
20040;SDS011;10181;48.072;9.884;2023-04-16T04:15:24;18.13;;;17.43;;
20040;SDS011;10181;48.072;9.884;2023-04-16T04:17:49;17.97;;;17.37;;
20040;SDS011;10181;48.072;9.884;2023-04-16T04:20:15;18.87;;;18.07;;
20040;SDS011;10181;48.072;9.884;2023-04-16T04:22:41;18.30;;;17.60;;
20040;SDS011;10181;48.072;9.884;2023-04-16T04:25:07;19.47;;;18.77;;
20040;SDS011;10181;48.072;9.884;2023-04-16T04:27:34;18.77;;;18.07;;
20040;SDS011;10181;48.072;9.884;2023-04-16T04:30:00;19.07;;;18.37;;
20040;SDS011;10181;48.072;9.884;2023-04-16T04:32:26;17.33;;;16.70;;
20040;SDS011;10181;48.072;9.884;2023-04-16T04:34:52;17.13;;;16.53;;
20040;SDS011;10181;48.072;9.884;2023-04-16T04:37:17;16.57;;;15.97;;
20040;SDS011;10181;48.072;9.884;2023-04-16T04:39:43;9.07;;;8.77;;
20040;SDS011;10181;48.072;9.884;2023-04-16T04:42:08;4.17;;;3.97;;
20040;SDS011;10181;48.072;9.884;2023-04-16T04:44:34;3.53;;;3.33;;
20040;SDS011;10181;48.072;9.884;2023-04-16T04:47:00;4.17;;;3.20;;
20040;SDS011;10181;48.072;9.884;2023-04-16T04:49:25;10.57;;;6.70;;
20040;SDS011;10181;48.072;9.884;2023-04-16T04:51:51;19.80;;;11.50;;
20040;SDS011;10181;48.072;9.884;2023-04-16T04:54:17;16.53;;;9.57;;
20040;SDS011;10181;48.072;9.884;2023-04-16T04:56:42;3.60;;;3.40;;
20040;SDS011;10181;48.072;9.884;2023-04-16T04:59:11;4.30;;;4.10;;
20040;SDS011;10181;48.072;9.884;2023-04-16T05:01:37;5.63;;;5.23;;
20040;SDS011;10181;48.072;9.884;2023-04-16T05:04:02;4.03;;;3.83;;
20040;SDS011;10181;48.072;9.884;2023-04-16T05:06:28;4.43;;;4.23;;
20040;SDS011;10181;48.072;9.884;2023-04-16T05:08:54;4.70;;;4.40;;
20040;SDS011;10181;48.072;9.884;2023-04-16T05:11:19;4.97;;;4.77;;
20040;SDS011;10181;48.072;9.884;2023-04-16T05:13:45;4.93;;;4.70;;
20040;SDS011;10181;48.072;9.884;2023-04-16T05:16:11;5.77;;;5.47;;
20040;SDS011;10181;48.072;9.884;2023-04-16T05:18:36;5.80;;;5.60;;
20040;SDS011;10181;48.072;9.884;2023-04-16T05:21:02;5.20;;;5.00;;
20040;SDS011;10181;48.072;9.884;2023-04-16T05:23:28;5.90;;;5.70;;
20040;SDS011;10181;48.072;9.884;2023-04-16T05:25:53;4.73;;;4.43;;
20040;SDS011;10181;48.072;9.884;2023-04-16T05:28:19;3.67;;;3.47;;
20040;SDS011;10181;48.072;9.884;2023-04-16T05:30:45;2.93;;;2.73;;
20040;SDS011;10181;48.072;9.884;2023-04-16T05:33:10;3.13;;;2.93;;
20040;SDS011;10181;48.072;9.884;2023-04-16T05:35:36;3.47;;;3.27;;
20040;SDS011;10181;48.072;9.884;2023-04-16T05:38:01;2.87;;;2.77;;
20040;SDS011;10181;48.072;9.884;2023-04-16T05:40:28;3.80;;;3.10;;
20040;SDS011;10181;48.072;9.884;2023-04-16T05:42:54;3.13;;;2.93;;
20040;SDS011;10181;48.072;9.884;2023-04-16T05:45:19;2.87;;;2.77;;
20040;SDS011;10181;48.072;9.884;2023-04-16T05:47:45;3.50;;;3.30;;
20040;SDS011;10181;48.072;9.884;2023-04-16T05:50:10;3.00;;;2.80;;
20040;SDS011;10181;48.072;9.884;2023-04-16T05:52:36;3.17;;;2.97;;
20040;SDS011;10181;48.072;9.884;2023-04-16T05:55:02;3.67;;;3.37;;
20040;SDS011;10181;48.072;9.884;2023-04-16T05:57:28;3.20;;;3.00;;
20040;SDS011;10181;48.072;9.884;2023-04-16T05:59:54;3.73;;;3.43;;
20040;SDS011;10181;48.072;9.884;2023-04-16T06:02:20;5.03;;;3.70;;
20040;SDS011;10181;48.072;9.884;2023-04-16T06:04:45;3.17;;;2.97;;
20040;SDS011;10181;48.072;9.884;2023-04-16T06:07:11;3.10;;;2.90;;
20040;SDS011;10181;48.072;9.884;2023-04-16T06:09:36;3.63;;;3.43;;
20040;SDS011;10181;48.072;9.884;2023-04-16T06:12:02;2.77;;;2.60;;
20040;SDS011;10181;48.072;9.884;2023-04-16T06:14:28;3.20;;;3.00;;
20040;SDS011;10181;48.072;9.884;2023-04-16T06:16:54;3.23;;;3.03;;
20040;SDS011;10181;48.072;9.884;2023-04-16T06:19:20;3.20;;;2.47;;
20040;SDS011;10181;48.072;9.884;2023-04-16T06:21:45;2.97;;;2.87;;
20040;SDS011;10181;48.072;9.884;2023-04-16T06:24:11;3.00;;;2.90;;
20040;SDS011;10181;48.072;9.884;2023-04-16T06:26:37;2.87;;;2.77;;
20040;SDS011;10181;48.072;9.884;2023-04-16T06:29:03;3.27;;;3.07;;
20040;SDS011;10181;48.072;9.884;2023-04-16T06:31:28;3.33;;;3.13;;
20040;SDS011;10181;48.072;9.884;2023-04-16T06:33:54;3.77;;;3.47;;
20040;SDS011;10181;48.072;9.884;2023-04-16T06:36:20;3.47;;;3.27;;
20040;SDS011;10181;48.072;9.884;2023-04-16T06:38:46;2.57;;;2.47;;
20040;SDS011;10181;48.072;9.884;2023-04-16T06:41:12;2.80;;;2.70;;
20040;SDS011;10181;48.072;9.884;2023-04-16T06:43:38;2.60;;;2.50;;
20040;SDS011;10181;48.072;9.884;2023-04-16T06:46:04;2.80;;;2.70;;
20040;SDS011;10181;48.072;9.884;2023-04-16T06:48:29;3.13;;;2.93;;
20040;SDS011;10181;48.072;9.884;2023-04-16T06:50:55;3.20;;;3.00;;
20040;SDS011;10181;48.072;9.884;2023-04-16T06:53:22;3.57;;;3.40;;
20040;SDS011;10181;48.072;9.884;2023-04-16T06:55:48;3.17;;;3.07;;
20040;SDS011;10181;48.072;9.884;2023-04-16T06:58:13;2.73;;;2.63;;
20040;SDS011;10181;48.072;9.884;2023-04-16T07:00:39;2.60;;;2.50;;
20040;SDS011;10181;48.072;9.884;2023-04-16T07:03:04;2.90;;;2.77;;
20040;SDS011;10181;48.072;9.884;2023-04-16T07:05:30;2.63;;;2.53;;
20040;SDS011;10181;48.072;9.884;2023-04-16T07:07:56;2.80;;;2.70;;
20040;SDS011;10181;48.072;9.884;2023-04-16T07:10:22;2.90;;;2.80;;
20040;SDS011;10181;48.072;9.884;2023-04-16T07:12:48;2.30;;;2.20;;
20040;SDS011;10181;48.072;9.884;2023-04-16T07:15:14;2.17;;;2.07;;
20040;SDS011;10181;48.072;9.884;2023-04-16T07:17:39;4.07;;;3.77;;
20040;SDS011;10181;48.072;9.884;2023-04-16T07:20:05;2.87;;;2.77;;
20040;SDS011;10181;48.072;9.884;2023-04-16T07:22:31;3.67;;;3.47;;
20040;SDS011;10181;48.072;9.884;2023-04-16T07:24:57;3.40;;;3.20;;
20040;SDS011;10181;48.072;9.884;2023-04-16T07:27:23;2.73;;;2.63;;
20040;SDS011;10181;48.072;9.884;2023-04-16T07:29:48;2.53;;;2.43;;
20040;SDS011;10181;48.072;9.884;2023-04-16T07:32:14;2.53;;;2.43;;
20040;SDS011;10181;48.072;9.884;2023-04-16T07:34:40;2.40;;;2.30;;
20040;SDS011;10181;48.072;9.884;2023-04-16T07:37:06;2.63;;;2.53;;
20040;SDS011;10181;48.072;9.884;2023-04-16T07:39:32;2.63;;;2.53;;
20040;SDS011;10181;48.072;9.884;2023-04-16T07:41:58;2.40;;;2.30;;
20040;SDS011;10181;48.072;9.884;2023-04-16T07:44:24;2.83;;;2.73;;
20040;SDS011;10181;48.072;9.884;2023-04-16T07:46:49;2.10;;;2.00;;
20040;SDS011;10181;48.072;9.884;2023-04-16T07:49:15;2.20;;;2.10;;
20040;SDS011;10181;48.072;9.884;2023-04-16T07:51:41;2.20;;;2.10;;
20040;SDS011;10181;48.072;9.884;2023-04-16T07:54:06;3.03;;;2.93;;
20040;SDS011;10181;48.072;9.884;2023-04-16T07:56:32;3.70;;;3.60;;
20040;SDS011;10181;48.072;9.884;2023-04-16T07:58:57;3.07;;;2.97;;
20040;SDS011;10181;48.072;9.884;2023-04-16T08:01:23;4.33;;;4.13;;
20040;SDS011;10181;48.072;9.884;2023-04-16T08:03:49;4.20;;;4.10;;
20040;SDS011;10181;48.072;9.884;2023-04-16T08:06:15;4.70;;;4.40;;
20040;SDS011;10181;48.072;9.884;2023-04-16T08:08:41;2.87;;;2.77;;
20040;SDS011;10181;48.072;9.884;2023-04-16T08:11:07;2.77;;;2.60;;
20040;SDS011;10181;48.072;9.884;2023-04-16T08:13:32;2.03;;;2.03;;
20040;SDS011;10181;48.072;9.884;2023-04-16T08:15:58;2.70;;;2.60;;
20040;SDS011;10181;48.072;9.884;2023-04-16T08:18:24;2.07;;;1.97;;
20040;SDS011;10181;48.072;9.884;2023-04-16T08:20:49;2.37;;;2.27;;
20040;SDS011;10181;48.072;9.884;2023-04-16T08:23:15;2.20;;;2.10;;
20040;SDS011;10181;48.072;9.884;2023-04-16T08:25:40;1.90;;;1.90;;
20040;SDS011;10181;48.072;9.884;2023-04-16T08:28:06;2.27;;;2.17;;
20040;SDS011;10181;48.072;9.884;2023-04-16T08:30:32;3.23;;;3.07;;
20040;SDS011;10181;48.072;9.884;2023-04-16T08:32:57;3.13;;;3.03;;
20040;SDS011;10181;48.072;9.884;2023-04-16T08:35:23;1.80;;;1.77;;
20040;SDS011;10181;48.072;9.884;2023-04-16T08:37:49;2.47;;;2.37;;
20040;SDS011;10181;48.072;9.884;2023-04-16T08:40:14;2.00;;;1.90;;
20040;SDS011;10181;48.072;9.884;2023-04-16T08:42:59;2.33;;;2.23;;
20040;SDS011;10181;48.072;9.884;2023-04-16T08:45:29;1.77;;;1.77;;
20040;SDS011;10181;48.072;9.884;2023-04-16T08:47:58;2.10;;;2.00;;
20040;SDS011;10181;48.072;9.884;2023-04-16T08:50:25;1.80;;;1.70;;
20040;SDS011;10181;48.072;9.884;2023-04-16T08:52:54;2.50;;;2.10;;
20040;SDS011;10181;48.072;9.884;2023-04-16T08:55:40;2.53;;;2.43;;
20040;SDS011;10181;48.072;9.884;2023-04-16T09:00:43;2.33;;;2.23;;
20040;SDS011;10181;48.072;9.884;2023-04-16T09:03:10;3.03;;;2.93;;
20040;SDS011;10181;48.072;9.884;2023-04-16T09:05:37;3.20;;;3.10;;
20040;SDS011;10181;48.072;9.884;2023-04-16T09:08:04;4.83;;;4.63;;
20040;SDS011;10181;48.072;9.884;2023-04-16T09:10:30;6.03;;;5.83;;
20040;SDS011;10181;48.072;9.884;2023-04-16T09:12:56;5.57;;;5.27;;
20040;SDS011;10181;48.072;9.884;2023-04-16T09:15:22;5.37;;;5.07;;
20040;SDS011;10181;48.072;9.884;2023-04-16T09:17:49;5.77;;;5.33;;
20040;SDS011;10181;48.072;9.884;2023-04-16T09:20:15;5.27;;;4.97;;
20040;SDS011;10181;48.072;9.884;2023-04-16T09:22:41;6.40;;;6.00;;
20040;SDS011;10181;48.072;9.884;2023-04-16T09:25:09;5.63;;;5.13;;
20040;SDS011;10181;48.072;9.884;2023-04-16T09:27:35;6.63;;;6.00;;
20040;SDS011;10181;48.072;9.884;2023-04-16T09:30:01;6.80;;;6.20;;
20040;SDS011;10181;48.072;9.884;2023-04-16T09:32:45;6.53;;;6.03;;
20040;SDS011;10181;48.072;9.884;2023-04-16T09:35:11;9.03;;;8.17;;
20040;SDS011;10181;48.072;9.884;2023-04-16T09:37:36;8.63;;;7.87;;
20040;SDS011;10181;48.072;9.884;2023-04-16T09:40:03;9.13;;;8.43;;
20040;SDS011;10181;48.072;9.884;2023-04-16T09:42:31;14.20;;;13.30;;
20040;SDS011;10181;48.072;9.884;2023-04-16T09:44:58;24.70;;;23.40;;
20040;SDS011;10181;48.072;9.884;2023-04-16T09:50:06;32.03;;;30.30;;
20040;SDS011;10181;48.072;9.884;2023-04-16T09:52:34;33.37;;;31.80;;
20040;SDS011;10181;48.072;9.884;2023-04-16T09:55:01;38.20;;;36.17;;
20040;SDS011;10181;48.072;9.884;2023-04-16T09:57:27;36.77;;;34.97;;
20040;SDS011;10181;48.072;9.884;2023-04-16T09:59:54;35.23;;;33.10;;
20040;SDS011;10181;48.072;9.884;2023-04-16T10:02:27;38.77;;;36.57;;
20040;SDS011;10181;48.072;9.884;2023-04-16T10:04:53;29.40;;;27.80;;
20040;SDS011;10181;48.072;9.884;2023-04-16T10:07:19;24.73;;;23.23;;
20040;SDS011;10181;48.072;9.884;2023-04-16T10:09:45;18.53;;;17.43;;
20040;SDS011;10181;48.072;9.884;2023-04-16T10:12:14;11.03;;;10.23;;
20040;SDS011;10181;48.072;9.884;2023-04-16T10:14:40;11.27;;;10.50;;
20040;SDS011;10181;48.072;9.884;2023-04-16T10:17:07;12.83;;;11.80;;
20040;SDS011;10181;48.072;9.884;2023-04-16T10:19:33;11.90;;;11.10;;
20040;SDS011;10181;48.072;9.884;2023-04-16T10:21:59;12.10;;;11.10;;
20040;SDS011;10181;48.072;9.884;2023-04-16T10:24:30;13.07;;;12.17;;
20040;SDS011;10181;48.072;9.884;2023-04-16T10:26:57;13.67;;;12.77;;
20040;SDS011;10181;48.072;9.884;2023-04-16T10:29:24;14.30;;;13.33;;
20040;SDS011;10181;48.072;9.884;2023-04-16T10:31:54;13.73;;;13.03;;
20040;SDS011;10181;48.072;9.884;2023-04-16T10:34:20;14.40;;;13.30;;
20040;SDS011;10181;48.072;9.884;2023-04-16T10:36:48;17.07;;;15.80;;
20040;SDS011;10181;48.072;9.884;2023-04-16T10:39:17;17.87;;;16.90;;
20040;SDS011;10181;48.072;9.884;2023-04-16T10:41:46;17.37;;;16.37;;
20040;SDS011;10181;48.072;9.884;2023-04-16T10:44:12;19.83;;;18.53;;
20040;SDS011;10181;48.072;9.884;2023-04-16T10:46:47;21.30;;;20.07;;
20040;SDS011;10181;48.072;9.884;2023-04-16T10:49:16;24.50;;;23.10;;
20040;SDS011;10181;48.072;9.884;2023-04-16T10:51:53;25.13;;;23.83;;
20040;SDS011;10181;48.072;9.884;2023-04-16T10:56:48;27.40;;;25.87;;
20040;SDS011;10181;48.072;9.884;2023-04-16T10:59:16;25.77;;;24.23;;
20040;SDS011;10181;48.072;9.884;2023-04-16T11:01:44;22.70;;;21.43;;
20040;SDS011;10181;48.072;9.884;2023-04-16T11:07:01;19.40;;;18.30;;
20040;SDS011;10181;48.072;9.884;2023-04-16T11:10:10;24.37;;;23.17;;
20040;SDS011;10181;48.072;9.884;2023-04-16T11:12:37;25.53;;;24.07;;
20040;SDS011;10181;48.072;9.884;2023-04-16T11:15:08;29.73;;;28.23;;
20040;SDS011;10181;48.072;9.884;2023-04-16T11:22:48;24.37;;;23.03;;
20040;SDS011;10181;48.072;9.884;2023-04-16T11:25:23;27.57;;;25.97;;
20040;SDS011;10181;48.072;9.884;2023-04-16T11:27:53;29.43;;;27.87;;
20040;SDS011;10181;48.072;9.884;2023-04-16T11:30:31;27.23;;;25.53;;
20040;SDS011;10181;48.072;9.884;2023-04-16T11:32:58;25.90;;;24.40;;
20040;SDS011;10181;48.072;9.884;2023-04-16T11:35:26;21.70;;;20.23;;
20040;SDS011;10181;48.072;9.884;2023-04-16T11:37:54;22.07;;;20.60;;
20040;SDS011;10181;48.072;9.884;2023-04-16T11:40:21;18.23;;;17.03;;
20040;SDS011;10181;48.072;9.884;2023-04-16T11:42:47;17.57;;;16.37;;
20040;SDS011;10181;48.072;9.884;2023-04-16T11:45:12;18.20;;;16.90;;
20040;SDS011;10181;48.072;9.884;2023-04-16T11:47:42;17.53;;;16.37;;
20040;SDS011;10181;48.072;9.884;2023-04-16T11:50:19;19.23;;;18.03;;
20040;SDS011;10181;48.072;9.884;2023-04-16T11:52:48;19.03;;;17.80;;
20040;SDS011;10181;48.072;9.884;2023-04-16T11:55:15;17.00;;;16.00;;
20040;SDS011;10181;48.072;9.884;2023-04-16T11:57:41;16.93;;;15.83;;
20040;SDS011;10181;48.072;9.884;2023-04-16T12:00:06;15.67;;;14.67;;
20040;SDS011;10181;48.072;9.884;2023-04-16T12:02:41;15.43;;;14.23;;
20040;SDS011;10181;48.072;9.884;2023-04-16T12:08:02;14.67;;;13.73;;
20040;SDS011;10181;48.072;9.884;2023-04-16T12:10:34;15.00;;;14.00;;
20040;SDS011;10181;48.072;9.884;2023-04-16T12:13:11;13.60;;;12.70;;
20040;SDS011;10181;48.072;9.884;2023-04-16T12:15:48;11.50;;;10.70;;
20040;SDS011;10181;48.072;9.884;2023-04-16T12:18:15;12.33;;;11.33;;
20040;SDS011;10181;48.072;9.884;2023-04-16T12:20:42;9.60;;;8.90;;
20040;SDS011;10181;48.072;9.884;2023-04-16T12:23:09;8.57;;;7.87;;
20040;SDS011;10181;48.072;9.884;2023-04-16T12:25:35;6.67;;;6.07;;
20040;SDS011;10181;48.072;9.884;2023-04-16T12:28:01;6.50;;;6.00;;
20040;SDS011;10181;48.072;9.884;2023-04-16T12:30:27;6.60;;;5.63;;
20040;SDS011;10181;48.072;9.884;2023-04-16T12:33:13;7.30;;;6.60;;
20040;SDS011;10181;48.072;9.884;2023-04-16T12:35:41;6.07;;;5.57;;
20040;SDS011;10181;48.072;9.884;2023-04-16T12:38:08;6.87;;;6.27;;
20040;SDS011;10181;48.072;9.884;2023-04-16T12:40:34;6.57;;;5.97;;
20040;SDS011;10181;48.072;9.884;2023-04-16T12:43:00;6.23;;;5.80;;
20040;SDS011;10181;48.072;9.884;2023-04-16T12:45:26;7.87;;;7.27;;
20040;SDS011;10181;48.072;9.884;2023-04-16T12:47:52;7.80;;;7.13;;
20040;SDS011;10181;48.072;9.884;2023-04-16T12:50:18;7.90;;;7.20;;
20040;SDS011;10181;48.072;9.884;2023-04-16T12:52:43;7.40;;;6.70;;
20040;SDS011;10181;48.072;9.884;2023-04-16T12:55:09;7.70;;;7.10;;
20040;SDS011;10181;48.072;9.884;2023-04-16T12:57:35;8.10;;;7.50;;
20040;SDS011;10181;48.072;9.884;2023-04-16T13:00:01;8.40;;;7.70;;
20040;SDS011;10181;48.072;9.884;2023-04-16T13:02:28;8.23;;;7.43;;
20040;SDS011;10181;48.072;9.884;2023-04-16T13:04:54;8.13;;;7.53;;
20040;SDS011;10181;48.072;9.884;2023-04-16T13:07:19;8.20;;;7.50;;
20040;SDS011;10181;48.072;9.884;2023-04-16T13:09:45;8.50;;;7.80;;
20040;SDS011;10181;48.072;9.884;2023-04-16T13:12:11;7.80;;;7.00;;
20040;SDS011;10181;48.072;9.884;2023-04-16T13:14:37;7.00;;;6.40;;
20040;SDS011;10181;48.072;9.884;2023-04-16T13:17:03;7.93;;;7.13;;
20040;SDS011;10181;48.072;9.884;2023-04-16T13:19:29;7.33;;;6.67;;
20040;SDS011;10181;48.072;9.884;2023-04-16T13:21:55;8.23;;;7.63;;
20040;SDS011;10181;48.072;9.884;2023-04-16T13:24:21;9.47;;;8.50;;
20040;SDS011;10181;48.072;9.884;2023-04-16T13:26:47;9.70;;;8.90;;
20040;SDS011;10181;48.072;9.884;2023-04-16T13:29:15;9.30;;;8.63;;
20040;SDS011;10181;48.072;9.884;2023-04-16T13:31:41;9.47;;;8.67;;
20040;SDS011;10181;48.072;9.884;2023-04-16T13:34:07;11.00;;;10.20;;
20040;SDS011;10181;48.072;9.884;2023-04-16T13:36:33;8.20;;;7.50;;
20040;SDS011;10181;48.072;9.884;2023-04-16T13:38:59;9.27;;;8.53;;
20040;SDS011;10181;48.072;9.884;2023-04-16T13:41:25;9.93;;;9.07;;
20040;SDS011;10181;48.072;9.884;2023-04-16T13:43:50;7.27;;;6.67;;
20040;SDS011;10181;48.072;9.884;2023-04-16T13:46:17;8.73;;;8.03;;
20040;SDS011;10181;48.072;9.884;2023-04-16T13:48:43;7.83;;;7.23;;
20040;SDS011;10181;48.072;9.884;2023-04-16T13:51:10;8.13;;;7.53;;
20040;SDS011;10181;48.072;9.884;2023-04-16T13:53:35;7.67;;;7.03;;
20040;SDS011;10181;48.072;9.884;2023-04-16T13:56:01;7.27;;;6.80;;
20040;SDS011;10181;48.072;9.884;2023-04-16T13:58:27;7.40;;;6.70;;
20040;SDS011;10181;48.072;9.884;2023-04-16T14:00:53;6.30;;;5.70;;
20040;SDS011;10181;48.072;9.884;2023-04-16T14:03:19;6.97;;;6.27;;
20040;SDS011;10181;48.072;9.884;2023-04-16T14:05:44;6.50;;;6.00;;
20040;SDS011;10181;48.072;9.884;2023-04-16T14:08:10;6.87;;;6.17;;
20040;SDS011;10181;48.072;9.884;2023-04-16T14:10:38;7.40;;;6.60;;
20040;SDS011;10181;48.072;9.884;2023-04-16T14:13:04;6.23;;;5.70;;
20040;SDS011;10181;48.072;9.884;2023-04-16T14:15:30;6.87;;;6.27;;
20040;SDS011;10181;48.072;9.884;2023-04-16T14:17:55;5.53;;;5.13;;
20040;SDS011;10181;48.072;9.884;2023-04-16T14:20:21;6.67;;;6.13;;
20040;SDS011;10181;48.072;9.884;2023-04-16T14:22:47;6.63;;;5.47;;
20040;SDS011;10181;48.072;9.884;2023-04-16T14:25:12;5.17;;;4.77;;
20040;SDS011;10181;48.072;9.884;2023-04-16T14:27:38;5.87;;;5.23;;
20040;SDS011;10181;48.072;9.884;2023-04-16T14:30:05;5.87;;;5.37;;
20040;SDS011;10181;48.072;9.884;2023-04-16T14:32:31;6.43;;;5.57;;
20040;SDS011;10181;48.072;9.884;2023-04-16T14:34:57;5.97;;;5.57;;
20040;SDS011;10181;48.072;9.884;2023-04-16T14:37:22;5.90;;;5.40;;
20040;SDS011;10181;48.072;9.884;2023-04-16T14:39:48;5.50;;;5.10;;
20040;SDS011;10181;48.072;9.884;2023-04-16T14:42:14;6.53;;;6.00;;
20040;SDS011;10181;48.072;9.884;2023-04-16T14:44:40;5.03;;;4.63;;
20040;SDS011;10181;48.072;9.884;2023-04-16T14:47:05;5.97;;;5.47;;
20040;SDS011;10181;48.072;9.884;2023-04-16T14:49:32;5.73;;;5.33;;
20040;SDS011;10181;48.072;9.884;2023-04-16T14:51:59;5.37;;;4.93;;
20040;SDS011;10181;48.072;9.884;2023-04-16T14:54:26;6.03;;;5.53;;